createdAt,value
2023-04-10T00:00:57.239Z,97185.25
2023-04-10T00:03:27.656Z,97227.72
2023-04-10T00:05:57.394Z,97194.25
2023-04-10T00:08:26.598Z,97177.34
2023-04-10T00:10:56.133Z,97161.03
2023-04-10T00:13:24.391Z,97212.84
2023-04-10T00:15:52.546Z,97239.78
2023-04-10T00:18:20.778Z,97209.16
2023-04-10T00:20:50.299Z,97205.41
2023-04-10T00:23:18.462Z,97195.63
2023-04-10T00:25:48.524Z,97186.56
2023-04-10T00:28:17.295Z,97184.25
2023-04-10T00:30:45.976Z,97168.66
2023-04-10T00:33:14.194Z,97187.28
2023-04-10T00:35:42.418Z,97160.34
2023-04-10T00:38:12.016Z,97151.50
2023-04-10T00:40:40.673Z,97220.72
2023-04-10T00:43:08.864Z,97190.31
2023-04-10T00:45:37.430Z,97188.47
2023-04-10T00:48:06.401Z,97178.06
2023-04-10T00:50:34.740Z,97188.28
2023-04-10T00:53:04.194Z,97165.41
2023-04-10T00:55:33.783Z,97171.19
2023-04-10T00:58:02.054Z,97169.09
2023-04-10T01:00:30.919Z,97174.53
2023-04-10T01:03:00.735Z,97158.56
2023-04-10T01:05:36.614Z,97168.03
2023-04-10T01:08:14.033Z,97179.28
2023-04-10T01:10:52.979Z,97150.94
2023-04-10T01:13:26.896Z,97234.28
2023-04-10T01:16:03.678Z,97109.38
2023-04-10T01:18:39.405Z,97156.63
2023-04-10T01:21:12.459Z,97152.00
2023-04-10T01:24:05.207Z,97167.06
2023-04-10T01:26:51.487Z,97188.78
2023-04-10T01:29:23.147Z,97130.69
2023-04-10T01:31:57.081Z,97188.47
2023-04-10T01:34:34.902Z,97110.75
2023-04-10T01:37:06.651Z,97137.03
2023-04-10T01:39:39.334Z,97148.06
2023-04-10T01:42:08.734Z,97190.00
2023-04-10T01:44:44.014Z,97167.44
2023-04-10T01:47:14.506Z,97148.81
2023-04-10T01:49:45.389Z,97172.75
2023-04-10T01:52:15.513Z,97215.66
2023-04-10T01:54:49.441Z,97162.03
2023-04-10T01:57:24.670Z,97142.63
2023-04-10T01:59:57.729Z,97176.63
2023-04-10T02:02:26.454Z,97211.78
2023-04-10T02:04:54.746Z,97220.09
2023-04-10T02:07:31.512Z,97045.06
2023-04-10T02:10:06.057Z,97144.94
2023-04-10T02:12:41.487Z,97163.28
2023-04-10T02:15:13.188Z,97138.69
2023-04-10T02:17:42.694Z,97200.16
2023-04-10T02:20:12.463Z,97170.59
2023-04-10T02:22:43.836Z,97193.88
2023-04-10T02:25:12.696Z,97219.13
2023-04-10T02:27:41.628Z,97179.66
2023-04-10T02:30:12.461Z,97144.78
2023-04-10T02:32:42.033Z,97156.00
2023-04-10T02:35:10.647Z,97143.47
2023-04-10T02:37:39.300Z,97090.84
2023-04-10T02:40:10.662Z,97163.66
2023-04-10T02:42:49.823Z,97162.53
2023-04-10T02:45:19.688Z,97114.13
2023-04-10T02:47:48.031Z,97167.84
2023-04-10T02:50:18.049Z,97167.44
2023-04-10T02:52:47.668Z,97181.47
2023-04-10T02:55:16.029Z,97146.91
2023-04-10T02:57:44.538Z,97151.22
2023-04-10T03:00:14.435Z,97132.16
2023-04-10T03:03:12.946Z,97070.75
2023-04-10T03:05:49.485Z,97120.38
2023-04-10T03:08:20.209Z,97161.69
2023-04-10T03:10:49.498Z,97136.19
2023-04-10T03:13:18.060Z,97175.63
2023-04-10T03:15:46.500Z,97108.25
2023-04-10T03:18:16.246Z,97092.44
2023-04-10T03:20:46.203Z,97113.47
2023-04-10T03:23:14.424Z,97140.97
2023-04-10T03:25:43.418Z,97148.97
2023-04-10T03:28:12.833Z,97141.41
2023-04-10T03:30:41.048Z,97162.34
2023-04-10T03:33:10.703Z,97134.53
2023-04-10T03:35:40.485Z,97128.69
2023-04-10T03:38:10.924Z,97092.63
2023-04-10T03:40:39.317Z,97197.81
2023-04-10T03:43:10.849Z,97147.59
2023-04-10T03:45:40.145Z,97136.47
2023-04-10T03:48:08.617Z,97130.94
2023-04-10T03:50:45.491Z,97044.53
2023-04-10T03:53:13.893Z,97157.78
2023-04-10T03:55:42.223Z,97170.06
2023-04-10T03:58:12.338Z,97103.53
2023-04-10T04:00:41.516Z,97129.53
2023-04-10T04:03:22.108Z,97015.22
2023-04-10T04:05:52.447Z,97160.84
2023-04-10T04:08:38.836Z,97156.50
2023-04-10T04:11:39.367Z,97180.97
2023-04-10T04:14:15.004Z,97187.00
2023-04-10T04:16:50.137Z,97114.56
2023-04-10T04:19:53.872Z,97020.34
2023-04-10T04:22:46.782Z,97134.66
2023-04-10T04:25:33.520Z,97108.81
2023-04-10T04:28:20.647Z,97150.59
2023-04-10T04:31:03.672Z,97195.97
2023-04-10T04:34:10.518Z,97191.50
2023-04-10T04:36:51.247Z,97102.94
2023-04-10T04:39:39.774Z,97193.47
2023-04-10T04:42:37.395Z,97192.22
2023-04-10T04:45:17.176Z,97164.53
2023-04-10T04:48:08.803Z,97115.59
2023-04-10T04:50:56.944Z,97124.44
2023-04-10T04:53:42.335Z,97150.75
2023-04-10T04:56:30.721Z,97158.34
2023-04-10T04:59:17.514Z,97172.84
2023-04-10T05:02:11.684Z,97098.69
2023-04-10T05:04:59.355Z,97167.41
2023-04-10T05:07:42.378Z,97154.25
2023-04-10T05:10:43.052Z,97097.59
2023-04-10T05:13:44.694Z,97099.84
2023-04-10T05:16:23.770Z,97137.75
2023-04-10T05:18:58.241Z,97144.63
2023-04-10T05:21:49.280Z,97195.44
2023-04-10T05:24:23.562Z,97147.47
2023-04-10T05:27:14.791Z,97138.53
2023-04-10T05:29:57.295Z,97115.75
2023-04-10T05:32:42.279Z,97157.22
2023-04-10T05:35:47.100Z,97166.66
2023-04-10T05:38:29.797Z,97135.72
2023-04-10T05:41:12.562Z,97164.31
2023-04-10T05:44:00.011Z,97160.06
2023-04-10T05:46:37.739Z,97162.34
2023-04-10T05:49:11.666Z,97139.31
2023-04-10T05:52:03.074Z,97120.34
2023-04-10T05:55:03.191Z,97121.75
2023-04-10T05:57:54.464Z,97177.78
2023-04-10T06:00:45.410Z,97108.81
2023-04-10T06:04:04.510Z,97143.13
2023-04-10T06:06:35.178Z,97163.25
2023-04-10T06:09:03.504Z,97086.22
2023-04-10T06:11:31.901Z,97133.94
2023-04-10T06:14:02.084Z,97000.53
2023-04-10T06:16:44.252Z,97180.47
2023-04-10T06:19:13.907Z,97210.59
2023-04-10T06:21:42.110Z,97115.91
2023-04-10T06:24:12.692Z,97132.19
2023-04-10T06:26:41.411Z,97101.34
2023-04-10T06:29:11.504Z,97141.84
2023-04-10T06:31:40.802Z,97060.91
2023-04-10T06:34:10.297Z,97131.06
2023-04-10T06:36:41.747Z,97129.19
2023-04-10T06:39:10.409Z,97187.13
2023-04-10T06:41:38.994Z,97119.38
2023-04-10T06:44:16.478Z,97112.66
2023-04-10T06:46:44.724Z,97145.81
2023-04-10T06:49:12.973Z,97140.88
2023-04-10T06:51:42.548Z,97077.41
2023-04-10T06:54:10.928Z,97137.75
2023-04-10T06:56:39.257Z,97135.97
2023-04-10T06:59:07.512Z,97131.94
2023-04-10T07:01:35.842Z,97161.38
2023-04-10T07:04:04.214Z,97138.41
2023-04-10T07:06:32.502Z,97114.38
2023-04-10T07:09:02.093Z,97116.31
2023-04-10T07:11:30.407Z,97115.34
2023-04-10T07:13:58.980Z,97146.28
2023-04-10T07:16:27.560Z,97100.06
2023-04-10T07:18:56.456Z,97111.38
2023-04-10T07:21:25.202Z,97141.69
2023-04-10T07:23:53.458Z,97138.06
2023-04-10T07:26:23.056Z,97107.53
2023-04-10T07:28:51.346Z,97140.00
2023-04-10T07:31:19.634Z,97106.50
2023-04-10T07:33:48.377Z,97144.47
2023-04-10T07:36:17.108Z,97115.94
2023-04-10T07:38:45.385Z,97085.34
2023-04-10T07:41:14.158Z,97137.31
2023-04-10T07:43:44.150Z,97128.69
2023-04-10T07:46:12.506Z,97135.59
2023-04-10T07:48:40.956Z,97090.03
2023-04-10T07:51:09.904Z,97135.69
2023-04-10T07:53:38.378Z,97095.16
2023-04-10T07:56:08.596Z,97122.59
2023-04-10T07:58:37.367Z,97141.84
2023-04-10T08:01:07.867Z,97135.31
2023-04-10T08:03:40.863Z,97115.25
2023-04-10T08:06:35.792Z,97101.16
2023-04-10T08:09:04.311Z,97093.94
2023-04-10T08:11:37.348Z,97057.28
2023-04-10T08:14:07.268Z,97105.22
2023-04-10T08:16:38.582Z,97119.88
2023-04-10T08:19:07.115Z,97116.31
2023-04-10T08:21:35.410Z,97081.59
2023-04-10T08:24:05.459Z,97140.72
2023-04-10T08:26:33.726Z,97083.38
2023-04-10T08:29:02.217Z,97097.63
2023-04-10T08:31:30.865Z,97070.34
2023-04-10T08:34:00.784Z,97117.22
2023-04-10T08:36:29.380Z,97134.66
2023-04-10T08:38:57.649Z,97059.06
2023-04-10T08:41:25.964Z,97087.47
2023-04-10T08:43:54.605Z,97111.75
2023-04-10T08:46:26.073Z,97088.50
2023-04-10T08:49:02.299Z,97106.13
2023-04-10T08:51:37.966Z,97093.63
2023-04-10T08:54:09.428Z,97039.25
2023-04-10T08:56:41.397Z,97107.53
2023-04-10T08:59:10.118Z,97101.91
2023-04-10T09:01:38.809Z,97117.19
2023-04-10T09:04:08.738Z,97080.84
2023-04-10T09:06:37.128Z,97094.13
2023-04-10T09:09:07.148Z,97089.84
2023-04-10T09:12:00.759Z,97045.63
2023-04-10T09:14:32.484Z,97074.69
2023-04-10T09:17:19.169Z,97071.88
2023-04-10T09:19:52.463Z,97012.75
2023-04-10T09:22:31.208Z,97083.56
2023-04-10T09:25:01.429Z,96982.84
2023-04-10T09:27:32.530Z,96989.09
2023-04-10T09:30:01.039Z,97069.94
2023-04-10T09:32:42.135Z,97008.56
2023-04-10T09:35:13.644Z,96989.44
2023-04-10T09:37:43.297Z,96973.69
2023-04-10T09:40:23.002Z,96978.88
2023-04-10T09:42:51.908Z,96886.16
2023-04-10T09:45:22.600Z,97023.66
2023-04-10T09:48:04.282Z,97037.09
2023-04-10T09:50:41.779Z,97070.81
2023-04-10T09:53:11.981Z,97027.59
2023-04-10T09:55:40.630Z,97029.34
2023-04-10T09:58:10.166Z,97013.13
2023-04-10T10:00:42.967Z,97051.28
2023-04-10T10:03:13.385Z,97011.78
2023-04-10T10:05:46.285Z,96992.09
2023-04-10T10:08:16.535Z,96970.94
2023-04-10T10:10:49.851Z,97008.88
2023-04-10T10:13:25.553Z,96973.59
2023-04-10T10:16:02.711Z,97009.81
2023-04-10T10:18:40.695Z,96987.19
2023-04-10T10:21:11.480Z,96977.06
2023-04-10T10:23:41.086Z,96938.13
2023-04-10T10:26:11.459Z,96966.91
2023-04-10T10:28:41.805Z,96970.97
2023-04-10T10:31:11.721Z,96923.66
2023-04-10T10:33:41.290Z,96997.66
2023-04-10T10:36:13.951Z,96977.53
2023-04-10T10:38:49.367Z,96949.06
2023-04-10T10:41:24.969Z,96920.53
2023-04-10T10:44:01.604Z,96954.34
2023-04-10T10:46:39.452Z,96814.38
2023-04-10T10:49:07.752Z,96948.31
2023-04-10T10:51:48.203Z,96939.44
2023-04-10T10:54:40.383Z,96968.44
2023-04-10T10:57:47.551Z,96953.53
2023-04-10T11:00:17.180Z,96937.69
2023-04-10T11:02:45.917Z,96916.03
2023-04-10T11:05:52.663Z,96903.91
2023-04-10T11:08:45.865Z,96885.94
2023-04-10T11:11:17.879Z,96899.94
2023-04-10T11:14:18.423Z,96849.38
2023-04-10T11:16:49.997Z,96889.94
2023-04-10T11:19:22.696Z,96868.28
2023-04-10T11:22:09.334Z,96857.69
2023-04-10T11:25:10.530Z,96891.84
2023-04-10T11:27:46.439Z,96887.13
2023-04-10T11:30:32.230Z,96821.97
2023-04-10T11:33:01.480Z,96807.16
2023-04-10T11:35:31.521Z,96878.31
2023-04-10T11:38:19.621Z,96862.81
2023-04-10T11:41:06.969Z,96904.41
2023-04-10T11:43:35.954Z,96839.88
2023-04-10T11:46:08.081Z,96858.13
2023-04-10T11:48:37.891Z,96829.72
2023-04-10T11:51:14.324Z,96854.09
2023-04-10T11:53:43.490Z,96867.41
2023-04-10T11:56:21.845Z,96811.47
2023-04-10T11:58:54.961Z,96843.91
2023-04-10T12:01:25.523Z,96848.59
2023-04-10T12:03:54.133Z,96867.44
2023-04-10T12:06:23.535Z,96859.69
2023-04-10T12:08:51.980Z,96870.34
2023-04-10T12:11:23.076Z,96842.88
2023-04-10T12:13:54.588Z,96813.69
2023-04-10T12:16:23.508Z,96870.66
2023-04-10T12:18:52.920Z,96846.81
2023-04-10T12:21:21.793Z,96843.97
2023-04-10T12:23:50.049Z,96849.84
2023-04-10T12:26:22.346Z,96825.41
2023-04-10T12:28:55.919Z,96825.94
2023-04-10T12:31:31.316Z,96760.75
2023-04-10T12:34:01.292Z,96867.22
2023-04-10T12:36:32.269Z,96839.94
2023-04-10T12:39:02.224Z,96855.47
2023-04-10T12:41:34.365Z,96788.31
2023-04-10T12:44:11.350Z,96818.03
2023-04-10T12:46:41.011Z,96806.63
2023-04-10T12:49:14.983Z,96756.38
2023-04-10T12:51:47.755Z,96786.16
2023-04-10T12:54:33.520Z,96719.66
2023-04-10T12:57:04.784Z,96734.59
2023-04-10T12:59:33.720Z,96757.25
2023-04-10T13:02:02.494Z,96713.53
2023-04-10T13:04:32.217Z,96717.38
2023-04-10T13:07:01.200Z,96773.69
2023-04-10T13:09:29.433Z,96752.28
2023-04-10T13:11:57.929Z,96731.00
2023-04-10T13:14:27.580Z,96723.34
2023-04-10T13:16:55.910Z,96769.91
2023-04-10T13:19:24.414Z,96742.13
2023-04-10T13:21:52.643Z,96693.81
2023-04-10T13:24:20.915Z,96737.09
2023-04-10T13:26:49.167Z,96745.81
2023-04-10T13:29:17.408Z,96749.94
2023-04-10T13:31:47.040Z,96706.63
2023-04-10T13:34:15.803Z,96723.63
2023-04-10T13:36:44.529Z,96713.91
2023-04-10T13:39:12.833Z,96701.13
2023-04-10T13:41:41.131Z,96679.81
2023-04-10T13:44:09.427Z,96690.16
2023-04-10T13:46:37.669Z,96695.44
2023-04-10T13:49:07.313Z,96694.28
2023-04-10T13:51:35.542Z,96682.44
2023-04-10T13:54:04.952Z,96698.66
2023-04-10T13:56:33.202Z,96664.69
2023-04-10T13:59:01.406Z,96639.22
2023-04-10T14:01:29.626Z,96681.16
2023-04-10T14:04:16.549Z,96681.50
2023-04-10T14:06:44.775Z,96669.72
2023-04-10T14:09:13.232Z,96666.34
2023-04-10T14:11:41.638Z,96690.44
2023-04-10T14:14:09.906Z,96693.09
2023-04-10T14:16:38.116Z,96698.31
2023-04-10T14:19:06.627Z,96702.31
2023-04-10T14:21:37.309Z,96697.88
2023-04-10T14:24:05.571Z,96652.88
2023-04-10T14:26:33.799Z,96628.03
2023-04-10T14:29:02.102Z,96651.31
2023-04-10T14:31:30.448Z,96654.94
2023-04-10T14:33:58.697Z,96709.75
2023-04-10T14:36:27.853Z,96610.50
2023-04-10T14:38:57.450Z,96637.50
2023-04-10T14:41:25.667Z,96663.31
2023-04-10T14:43:54.082Z,96645.34
2023-04-10T14:46:22.545Z,96661.63
2023-04-10T14:48:50.824Z,96668.09
2023-04-10T14:51:19.746Z,96630.78
2023-04-10T14:53:48.080Z,96530.25
2023-04-10T14:56:17.653Z,96636.22
2023-04-10T14:58:47.460Z,96635.13
2023-04-10T15:01:17.453Z,96632.88
2023-04-10T15:03:49.329Z,96628.59
2023-04-10T15:06:17.736Z,96631.66
2023-04-10T15:08:46.009Z,96607.22
2023-04-10T15:11:14.207Z,96603.97
2023-04-10T15:13:43.804Z,96624.75
2023-04-10T15:16:12.473Z,96677.09
2023-04-10T15:18:40.709Z,96584.97
2023-04-10T15:21:09.370Z,96636.28
2023-04-10T15:23:37.626Z,96613.22
2023-04-10T15:26:06.171Z,96617.09
2023-04-10T15:28:37.830Z,96629.78
2023-04-10T15:31:08.252Z,96592.97
2023-04-10T15:33:37.999Z,96567.88
2023-04-10T15:36:08.537Z,96584.72
2023-04-10T15:38:37.751Z,96595.38
2023-04-10T15:41:10.976Z,96571.66
2023-04-10T15:43:39.574Z,96608.09
2023-04-10T15:46:10.484Z,96557.19
2023-04-10T15:48:38.932Z,96577.59
2023-04-10T15:51:08.229Z,96629.91
2023-04-10T15:53:36.725Z,96605.28
2023-04-10T15:56:06.294Z,96602.78
2023-04-10T15:58:35.018Z,96518.56
2023-04-10T16:01:03.259Z,96536.81
2023-04-10T16:03:33.218Z,96545.50
2023-04-10T16:06:02.073Z,96513.41
2023-04-10T16:08:30.424Z,96552.41
2023-04-10T16:10:58.686Z,96528.63
2023-04-10T16:13:31.506Z,96582.47
2023-04-10T16:15:59.835Z,96550.38
2023-04-10T16:18:28.482Z,96591.72
2023-04-10T16:20:58.267Z,96630.66
2023-04-10T16:23:26.572Z,96567.19
2023-04-10T16:25:54.809Z,96503.34
2023-04-10T16:28:23.380Z,96568.44
2023-04-10T16:30:51.611Z,96334.91
2023-04-10T16:33:19.906Z,96540.41
2023-04-10T16:35:48.539Z,96516.91
2023-04-10T16:38:18.255Z,96551.66
2023-04-10T16:40:46.567Z,96511.56
2023-04-10T16:43:14.828Z,96516.47
2023-04-10T16:45:43.077Z,96530.97
2023-04-10T16:48:11.410Z,96515.22
2023-04-10T16:50:39.723Z,96500.31
2023-04-10T16:53:08.014Z,96559.34
2023-04-10T16:55:37.626Z,96562.22
2023-04-10T16:58:05.929Z,96538.50
2023-04-10T17:00:35.358Z,96531.56
2023-04-10T17:03:04.032Z,96536.03
2023-04-10T17:05:36.361Z,96469.72
2023-04-10T17:08:05.631Z,96442.03
2023-04-10T17:10:34.024Z,96621.81
2023-04-10T17:13:03.630Z,96452.25
2023-04-10T17:15:31.894Z,96440.13
2023-04-10T17:18:00.228Z,96426.44
2023-04-10T17:20:29.046Z,96518.56
2023-04-10T17:22:57.324Z,96466.81
2023-04-10T17:25:25.651Z,96482.19
2023-04-10T17:27:53.972Z,96479.69
2023-04-10T17:30:23.557Z,96466.56
2023-04-10T17:32:52.010Z,96480.63
2023-04-10T17:35:20.387Z,96491.88
2023-04-10T17:37:48.720Z,96411.25
2023-04-10T17:40:16.966Z,96516.38
2023-04-10T17:42:45.309Z,96405.28
2023-04-10T17:45:14.008Z,96443.03
2023-04-10T17:47:43.679Z,96505.41
2023-04-10T17:50:12.367Z,96458.78
2023-04-10T17:52:40.638Z,96426.97
2023-04-10T17:55:10.192Z,96419.06
2023-04-10T17:57:38.429Z,96483.31
2023-04-10T18:00:09.957Z,96452.63
2023-04-10T18:02:38.500Z,96381.47
2023-04-10T18:05:11.706Z,96454.06
2023-04-10T18:07:40.242Z,96455.47
2023-04-10T18:10:11.558Z,96426.59
2023-04-10T18:12:41.700Z,96442.53
2023-04-10T18:15:10.857Z,96422.72
2023-04-10T18:17:39.516Z,96441.63
2023-04-10T18:20:10.836Z,96444.91
2023-04-10T18:22:39.076Z,96391.00
2023-04-10T18:25:09.527Z,96425.25
2023-04-10T18:27:37.773Z,96409.69
2023-04-10T18:30:10.436Z,96473.28
2023-04-10T18:32:41.014Z,96434.84
2023-04-10T18:35:11.494Z,96420.63
2023-04-10T18:37:40.748Z,96409.34
2023-04-10T18:40:16.326Z,96436.31
2023-04-10T18:42:46.013Z,96408.16
2023-04-10T18:45:14.318Z,96382.38
2023-04-10T18:47:42.494Z,96416.72
2023-04-10T18:50:12.570Z,96245.00
2023-04-10T18:52:40.835Z,96358.25
2023-04-10T18:55:10.015Z,96402.31
2023-04-10T18:57:38.262Z,96362.50
2023-04-10T19:00:08.326Z,96425.78
2023-04-10T19:02:36.796Z,96428.75
2023-04-10T19:05:05.636Z,96436.69
2023-04-10T19:07:35.265Z,96456.97
2023-04-10T19:10:03.528Z,96524.81
2023-04-10T19:12:31.832Z,96413.97
2023-04-10T19:15:00.049Z,96393.56
2023-04-10T19:17:28.519Z,96427.47
2023-04-10T19:19:58.032Z,96407.53
2023-04-10T19:22:26.310Z,96398.78
2023-04-10T19:24:55.900Z,96412.84
2023-04-10T19:27:24.115Z,96415.75
2023-04-10T19:29:52.428Z,96460.00
2023-04-10T19:32:20.726Z,96371.72
2023-04-10T19:34:51.386Z,96456.53
2023-04-10T19:37:21.163Z,96408.22
2023-04-10T19:39:49.444Z,96454.25
2023-04-10T19:42:18.986Z,96453.81
2023-04-10T19:44:47.244Z,96427.94
2023-04-10T19:47:15.460Z,96456.81
2023-04-10T19:49:43.672Z,96382.56
2023-04-10T19:52:11.907Z,96400.16
2023-04-10T19:54:40.224Z,96410.00
2023-04-10T19:57:08.438Z,96455.81
2023-04-10T19:59:38.078Z,96412.75
2023-04-10T20:02:12.304Z,96430.22
2023-04-10T20:04:40.698Z,96405.56
2023-04-10T20:07:12.385Z,96393.34
2023-04-10T20:09:40.917Z,96434.88
2023-04-10T20:12:09.747Z,96436.59
2023-04-10T20:14:39.496Z,96335.50
2023-04-10T20:17:07.768Z,96352.53
2023-04-10T20:19:36.022Z,96403.25
2023-04-10T20:22:04.464Z,96371.22
2023-04-10T20:24:33.172Z,96396.88
2023-04-10T20:27:01.587Z,96392.41
2023-04-10T20:29:30.067Z,96386.78
2023-04-10T20:31:59.831Z,96402.16
2023-04-10T20:34:28.143Z,96390.34
2023-04-10T20:36:56.387Z,96401.91
2023-04-10T20:39:24.777Z,96396.78
2023-04-10T20:41:53.556Z,96385.78
2023-04-10T20:44:21.824Z,96365.09
2023-04-10T20:46:50.357Z,96429.09
2023-04-10T20:49:20.080Z,96371.94
2023-04-10T20:51:48.764Z,96319.84
2023-04-10T20:54:18.999Z,96399.72
2023-04-10T20:56:47.292Z,96361.72
2023-04-10T20:59:15.545Z,96324.22
2023-04-10T21:01:43.934Z,96360.25
2023-04-10T21:04:12.274Z,96338.69
2023-04-10T21:06:41.915Z,96340.06
2023-04-10T21:09:10.204Z,96338.78
2023-04-10T21:11:38.439Z,96336.53
2023-04-10T21:14:06.701Z,96368.44
2023-04-10T21:16:37.504Z,96376.09
2023-04-10T21:19:05.828Z,96348.13
2023-04-10T21:21:34.092Z,96326.94
2023-04-10T21:24:03.819Z,96336.94
2023-04-10T21:26:32.098Z,96313.91
2023-04-10T21:29:00.355Z,96308.25
2023-04-10T21:31:28.748Z,96363.31
2023-04-10T21:33:57.086Z,96329.47
2023-04-10T21:36:26.412Z,96248.28
2023-04-10T21:38:54.895Z,96313.25
2023-04-10T21:41:24.647Z,96297.06
2023-04-10T21:43:56.443Z,96321.81
2023-04-10T21:46:24.850Z,96319.59
2023-04-10T21:48:53.258Z,96306.84
2023-04-10T21:51:21.695Z,96306.50
2023-04-10T21:53:49.955Z,96315.41
2023-04-10T21:56:18.200Z,96320.88
2023-04-10T21:58:47.835Z,96310.41
2023-04-10T22:01:16.269Z,96320.31
2023-04-10T22:03:44.869Z,96338.50
2023-04-10T22:06:13.509Z,96323.59
2023-04-10T22:08:42.138Z,96284.94
2023-04-10T22:11:10.370Z,96304.38
2023-04-10T22:13:38.626Z,96298.66
2023-04-10T22:16:08.748Z,96313.72
2023-04-10T22:18:37.037Z,96246.44
2023-04-10T22:21:05.813Z,96287.41
2023-04-10T22:23:34.100Z,96276.50
2023-04-10T22:26:02.422Z,96298.31
2023-04-10T22:28:30.763Z,96236.47
2023-04-10T22:30:59.751Z,96291.94
2023-04-10T22:33:29.397Z,96262.63
2023-04-10T22:35:57.642Z,96270.47
2023-04-10T22:38:25.961Z,96232.53
2023-04-10T22:40:55.877Z,96285.81
2023-04-10T22:43:24.130Z,96257.91
2023-04-10T22:45:52.574Z,96243.44
2023-04-10T22:48:20.954Z,96179.81
2023-04-10T22:50:50.557Z,96226.63
2023-04-10T22:53:18.813Z,96240.38
2023-04-10T22:55:47.032Z,96186.16
2023-04-10T22:58:15.317Z,96237.63
2023-04-10T23:00:43.511Z,96214.59
2023-04-10T23:03:11.802Z,96166.31
2023-04-10T23:05:40.124Z,96148.03
2023-04-10T23:08:09.701Z,96158.06
2023-04-10T23:10:37.906Z,96165.97
2023-04-10T23:13:06.863Z,96172.72
2023-04-10T23:15:35.433Z,96011.50
2023-04-10T23:18:03.718Z,96123.41
2023-04-10T23:20:31.957Z,96128.22
2023-04-10T23:23:00.149Z,96157.72
2023-04-10T23:25:29.825Z,96162.41
2023-04-10T23:27:59.857Z,96130.84
2023-04-10T23:30:29.099Z,96113.47
2023-04-10T23:32:57.752Z,96145.84
2023-04-10T23:35:27.672Z,96103.16
2023-04-10T23:37:56.026Z,96192.44
2023-04-10T23:40:24.245Z,96135.53
2023-04-10T23:42:53.769Z,96168.72
2023-04-10T23:45:22.008Z,96180.03
2023-04-10T23:47:51.053Z,96108.88
2023-04-10T23:50:19.721Z,96167.41
2023-04-10T23:52:50.305Z,96157.72
2023-04-10T23:55:19.059Z,96154.19
2023-04-10T23:57:47.283Z,96184.03
